Time;durP1;ratioP1;P1;durP2;ratioP2;P2;SDS_P1;SDS_P2;PMS_P1;PMS_P2;Temp;Humidity;BMP_temperature;BMP_pressure;BME280_temperature;BME280_humidity;BME280_pressure;Samples;Min_cycle;Max_cycle;Signal;HPM_P1;HPM_P2
2022/07/04 00:02:14;;;;;;;4.30;3.90;;;;;;;17.70;69.59;96815.86;106189;1284;97882;-79
2022/07/04 00:04:45;;;;;;;5.00;4.50;;;;;;;17.59;69.62;96815.98;106460;1284;71517;-81
2022/07/04 00:07:16;;;;;;;5.50;4.40;;;;;;;17.24;69.97;96816.14;106887;1284;43065;-80
2022/07/04 00:09:48;;;;;;;5.20;4.70;;;;;;;17.05;70.74;96809.70;106449;1284;125279;-79
2022/07/04 00:12:19;;;;;;;6.00;4.80;;;;;;;17.09;70.98;96810.81;106495;1284;37675;-79
2022/07/04 00:14:50;;;;;;;5.40;4.50;;;;;;;17.20;71.00;96812.16;106456;1284;47817;-80
2022/07/04 00:17:24;;;;;;;5.40;4.30;;;;;;;17.23;70.86;96815.27;106405;1284;110817;-80
2022/07/04 00:19:55;;;;;;;5.20;4.60;;;;;;;17.30;71.05;96808.37;106403;1284;79797;-80
2022/07/04 00:22:27;;;;;;;5.20;4.60;;;;;;;17.35;70.73;96804.09;106506;1284;33046;-79
2022/07/04 00:24:58;;;;;;;5.70;5.10;;;;;;;17.30;70.48;96801.69;106615;1284;66199;-80
2022/07/04 00:27:29;;;;;;;6.80;5.40;;;;;;;17.23;70.83;96802.48;106377;1284;71927;-80
2022/07/04 00:30:01;;;;;;;5.90;5.20;;;;;;;17.24;70.84;96801.22;104306;1284;1868213;-80
2022/07/04 00:32:32;;;;;;;5.40;4.70;;;;;;;17.26;70.98;96797.17;106331;1284;65613;-80
2022/07/04 00:35:04;;;;;;;5.30;4.80;;;;;;;17.16;70.80;96800.09;106412;1284;41942;-80
2022/07/04 00:37:35;;;;;;;5.40;4.80;;;;;;;16.95;70.92;96799.02;106551;1284;35349;-80
2022/07/04 00:40:08;;;;;;;6.50;5.40;;;;;;;16.77;71.76;96798.37;106581;1284;30585;-80
2022/07/04 00:42:39;;;;;;;6.80;5.70;;;;;;;16.91;72.39;96791.35;106774;1284;41826;-80
2022/07/04 00:45:12;;;;;;;7.30;6.20;;;;;;;17.05;72.65;96792.27;106512;1284;38154;-79
2022/07/04 00:47:43;;;;;;;8.10;7.00;;;;;;;17.26;73.71;96784.91;106523;1284;32256;-80
2022/07/04 00:50:15;;;;;;;8.40;7.60;;;;;;;17.49;73.76;96785.08;106504;1284;35496;-79
2022/07/04 00:52:46;;;;;;;7.70;6.90;;;;;;;17.55;73.20;96785.27;106453;1284;35368;-79
2022/07/04 00:55:18;;;;;;;8.80;7.90;;;;;;;17.48;72.97;96783.90;106470;1284;35432;-81
2022/07/04 00:57:49;;;;;;;8.30;7.20;;;;;;;17.48;73.28;96785.57;106559;1284;35300;-79
2022/07/04 01:00:24;;;;;;;8.60;7.20;;;;;;;17.50;73.58;96782.76;106543;1284;33518;-79
2022/07/04 01:02:55;;;;;;;8.30;6.60;;;;;;;17.57;74.12;96781.20;106410;1284;99500;-79
2022/07/04 01:05:31;;;;;;;9.50;7.00;;;;;;;17.71;74.08;96783.08;106456;1283;69505;-79
2022/07/04 01:08:02;;;;;;;8.30;6.80;;;;;;;17.80;73.58;96784.89;106524;1284;55333;-79
2022/07/04 01:10:36;;;;;;;11.20;7.00;;;;;;;17.78;73.05;96784.66;106369;1284;54043;-80
2022/07/04 01:13:07;;;;;;;6.30;5.60;;;;;;;17.60;72.62;96778.66;106579;1284;68629;-80
2022/07/04 01:15:38;;;;;;;7.90;5.60;;;;;;;17.33;72.50;96775.42;106575;1284;64988;-79
2022/07/04 01:18:09;;;;;;;6.90;5.10;;;;;;;17.10;72.91;96780.92;106518;1284;71098;-80
2022/07/04 01:20:43;;;;;;;4.80;4.30;;;;;;;16.90;73.19;96778.14;106579;1284;33776;-80
2022/07/04 01:23:17;;;;;;;6.50;5.00;;;;;;;16.72;73.45;96780.73;106507;1284;71000;-79
2022/07/04 01:25:52;;;;;;;5.80;4.70;;;;;;;16.61;73.74;96781.90;106583;1284;38259;-79
2022/07/04 01:28:24;;;;;;;6.60;5.40;;;;;;;16.53;74.07;96777.56;106657;1284;60863;-79
2022/07/04 01:30:55;;;;;;;7.50;6.10;;;;;;;16.52;74.42;96776.23;106675;1284;32743;-79
2022/07/04 01:33:26;;;;;;;7.30;6.10;;;;;;;16.55;74.76;96773.70;106541;1284;35030;-79
2022/07/04 01:35:57;;;;;;;5.90;5.30;;;;;;;16.60;74.71;96775.91;106477;1284;120553;-79
2022/07/04 01:38:29;;;;;;;5.70;5.20;;;;;;;16.70;74.64;96773.61;106637;1284;37771;-80
2022/07/04 01:41:00;;;;;;;6.90;5.50;;;;;;;16.79;74.32;96768.82;106694;1284;32227;-79
2022/07/04 01:43:32;;;;;;;6.70;5.60;;;;;;;16.79;74.09;96766.17;106558;1284;35070;-79
2022/07/04 01:46:03;;;;;;;8.10;5.60;;;;;;;16.83;73.75;96770.77;106444;1284;52764;-80
2022/07/04 01:48:35;;;;;;;7.00;6.10;;;;;;;16.82;73.82;96771.91;106232;1284;150306;-80
2022/07/04 01:51:06;;;;;;;6.40;5.80;;;;;;;16.80;73.98;96771.98;106402;1284;94580;-79
2022/07/04 01:53:39;;;;;;;5.90;5.30;;;;;;;16.71;74.08;96775.89;106226;1284;115978;-80
2022/07/04 01:56:11;;;;;;;8.20;5.20;;;;;;;16.57;74.38;96776.15;105196;1284;1805401;-80
2022/07/04 01:58:44;;;;;;;7.00;6.00;;;;;;;16.39;74.29;96778.13;106424;1284;36914;-79
2022/07/04 02:01:33;;;;;;;7.10;5.70;;;;;;;16.14;74.86;96784.35;106456;1284;77417;-80
2022/07/04 02:04:06;;;;;;;6.90;5.80;;;;;;;15.95;75.85;96782.17;106559;1284;36008;-80
2022/07/04 02:06:38;;;;;;;5.90;5.10;;;;;;;15.94;76.46;96781.73;106530;1284;81361;-80
2022/07/04 02:09:19;;;;;;;6.50;5.40;;;;;;;16.03;76.97;96780.46;106890;1284;31577;-80
2022/07/04 02:14:37;;;;;;;7.50;5.90;;;;;;;16.24;76.70;96784.39;106172;1283;109946;-80
2022/07/04 02:17:08;;;;;;;8.50;6.80;;;;;;;16.34;76.79;96781.58;105071;1284;1899105;-80
2022/07/04 02:19:40;;;;;;;6.90;6.00;;;;;;;16.46;76.72;96778.84;105922;1284;1180122;-80
2022/07/04 02:22:11;;;;;;;6.80;6.10;;;;;;;16.52;76.45;96782.13;106374;1284;76520;-78
2022/07/04 02:24:43;;;;;;;7.40;6.20;;;;;;;16.61;76.37;96782.41;106673;1284;85644;-80
2022/07/04 02:27:15;;;;;;;7.20;6.10;;;;;;;16.71;76.47;96784.08;106469;1284;50533;-80
2022/07/04 02:29:46;;;;;;;7.60;6.80;;;;;;;16.81;76.55;96791.88;106468;1284;35002;-80
2022/07/04 02:32:18;;;;;;;7.80;6.70;;;;;;;16.90;76.55;96796.42;106470;1283;32579;-81
2022/07/04 02:34:49;;;;;;;7.30;6.50;;;;;;;16.97;76.44;96799.61;106617;1284;40054;-80
2022/07/04 02:37:21;;;;;;;7.20;6.50;;;;;;;16.89;76.02;96801.59;106311;1284;38497;-80
2022/07/04 02:39:56;;;;;;;8.40;6.30;;;;;;;16.79;76.24;96802.81;106089;1284;112290;-80
2022/07/04 02:42:31;;;;;;;7.20;6.10;;;;;;;16.75;76.09;96800.23;106156;1284;116661;-80
2022/07/04 02:45:05;;;;;;;8.50;6.60;;;;;;;16.76;75.96;96800.98;106227;1284;113580;-80
2022/07/04 02:47:36;;;;;;;8.40;6.60;;;;;;;16.79;75.88;96804.33;106208;1284;155701;-80
2022/07/04 02:50:09;;;;;;;7.10;5.90;;;;;;;16.82;76.06;96804.16;106658;1284;35846;-80
2022/07/04 02:52:40;;;;;;;6.20;5.40;;;;;;;16.85;75.94;96806.52;106481;1284;79282;-80
2022/07/04 02:55:12;;;;;;;7.20;6.50;;;;;;;16.80;75.57;96804.21;106413;1284;79422;-80
2022/07/04 02:57:44;;;;;;;7.80;6.20;;;;;;;16.68;75.58;96800.07;106316;1284;89465;-80
2022/07/04 03:00:19;;;;;;;6.70;6.00;;;;;;;16.54;75.74;96804.19;106355;1284;41863;-81
2022/07/04 03:02:54;;;;;;;7.80;6.40;;;;;;;16.49;76.43;96807.38;106931;1282;36350;-80
2022/07/04 03:05:25;;;;;;;8.80;6.70;;;;;;;16.56;77.10;96809.37;106689;1284;32005;-80
2022/07/04 03:07:56;;;;;;;8.20;7.40;;;;;;;16.69;77.56;96806.30;106453;1284;65452;-80
2022/07/04 03:10:28;;;;;;;8.80;7.50;;;;;;;16.90;78.17;96809.06;106480;1284;47545;-80
2022/07/04 03:13:01;;;;;;;7.90;6.90;;;;;;;17.10;77.96;96812.91;106466;1284;95595;-80
2022/07/04 03:15:32;;;;;;;7.90;7.10;;;;;;;17.23;77.78;96811.66;106493;1284;99161;-81
2022/07/04 03:18:04;;;;;;;7.60;6.20;;;;;;;17.35;77.82;96807.90;105126;1284;1526711;-81
2022/07/04 03:20:35;;;;;;;7.40;6.70;;;;;;;17.44;77.65;96805.30;106275;1284;115971;-81
2022/07/04 03:23:06;;;;;;;8.20;7.30;;;;;;;17.50;77.21;96802.97;106638;1284;101975;-80
2022/07/04 03:25:39;;;;;;;9.00;8.00;;;;;;;17.57;77.29;96804.02;106331;1284;115650;-80
2022/07/04 03:28:11;;;;;;;8.40;7.50;;;;;;;17.67;77.26;96800.42;106261;1284;95028;-80
2022/07/04 03:30:42;;;;;;;8.70;7.40;;;;;;;17.79;77.11;96802.30;106669;1284;56328;-80
2022/07/04 03:33:14;;;;;;;9.80;7.40;;;;;;;17.91;77.07;96801.64;106631;1284;34071;-80
2022/07/04 03:35:45;;;;;;;9.20;7.90;;;;;;;18.01;76.82;96800.48;106865;1284;50248;-81
2022/07/04 03:38:17;;;;;;;9.20;8.20;;;;;;;18.13;76.69;96805.92;106845;1284;35428;-80
2022/07/04 03:40:48;;;;;;;8.70;7.30;;;;;;;18.23;76.42;96800.73;106697;1284;40596;-80
2022/07/04 03:43:19;;;;;;;7.80;7.00;;;;;;;18.32;76.34;96797.88;106586;1284;54099;-80
2022/07/04 03:45:50;;;;;;;9.00;7.80;;;;;;;18.39;76.23;96796.17;106611;1284;61516;-80
2022/07/04 03:48:21;;;;;;;9.10;8.10;;;;;;;18.48;76.02;96790.84;106492;1284;48943;-81
2022/07/04 03:50:52;;;;;;;9.70;8.00;;;;;;;18.56;75.77;96790.73;106864;1284;54485;-80
2022/07/04 03:53:23;;;;;;;9.60;8.40;;;;;;;18.62;75.69;96790.09;106751;1284;71175;-80
2022/07/04 03:55:54;;;;;;;7.40;6.70;;;;;;;18.68;75.63;96793.16;106749;1284;40733;-80
2022/07/04 03:58:25;;;;;;;9.30;8.30;;;;;;;18.75;75.44;96799.64;106541;1284;57882;-80
2022/07/04 04:01:01;;;;;;;8.90;7.90;;;;;;;18.83;75.33;96796.70;106504;1284;34595;-80
2022/07/04 04:06:21;;;;;;;7.90;7.10;;;;;;;19.06;74.88;96802.86;106636;1284;37884;-80
2022/07/04 04:08:52;;;;;;;9.90;7.80;;;;;;;19.21;74.49;96803.04;106199;1284;108027;-80
2022/07/04 04:11:23;;;;;;;9.40;8.40;;;;;;;19.37;74.13;96803.37;106265;1284;85147;-81
2022/07/04 04:13:55;;;;;;;8.90;7.80;;;;;;;19.49;73.82;96798.61;106859;1284;40118;-80
2022/07/04 04:16:26;;;;;;;8.70;7.80;;;;;;;19.61;73.28;96795.81;106577;1284;60373;-80
2022/07/04 04:18:57;;;;;;;9.20;8.00;;;;;;;19.73;73.16;96798.44;106849;1284;52611;-80
2022/07/04 04:21:31;;;;;;;8.70;7.80;;;;;;;19.80;72.63;96802.77;106772;1284;63224;-80
2022/07/04 04:24:02;;;;;;;9.60;8.00;;;;;;;19.83;72.55;96806.63;106857;1284;35891;-80
2022/07/04 04:26:33;;;;;;;9.10;8.20;;;;;;;19.91;72.15;96804.98;106873;1284;39432;-80
2022/07/04 04:29:05;;;;;;;8.90;7.80;;;;;;;19.94;71.99;96805.39;106962;1284;32607;-80
2022/07/04 04:31:36;;;;;;;9.20;7.50;;;;;;;19.98;71.90;96803.61;106769;1284;89590;-80
2022/07/04 04:34:08;;;;;;;9.60;8.60;;;;;;;20.05;71.59;96801.38;106930;1284;31739;-80
2022/07/04 04:36:39;;;;;;;8.40;7.50;;;;;;;20.07;71.44;96802.05;106849;1284;37327;-81
2022/07/04 04:39:10;;;;;;;9.80;8.40;;;;;;;20.07;71.15;96799.14;106599;1284;80654;-80
2022/07/04 04:41:42;;;;;;;9.80;8.30;;;;;;;20.05;71.15;96797.84;106629;1282;108534;-81
2022/07/04 04:44:14;;;;;;;8.90;8.00;;;;;;;19.94;70.93;96799.09;106676;1284;67150;-81
2022/07/04 04:46:47;;;;;;;9.10;8.10;;;;;;;19.85;71.06;96805.09;106894;1284;52781;-81
2022/07/04 04:49:18;;;;;;;9.50;8.40;;;;;;;19.84;71.26;96808.21;106907;1284;93000;-81
2022/07/04 04:51:49;;;;;;;10.10;9.10;;;;;;;19.93;71.61;96807.52;106633;1284;36741;-80
2022/07/04 04:54:21;;;;;;;9.60;8.60;;;;;;;20.10;71.54;96806.39;106805;1284;33531;-81
2022/07/04 04:56:52;;;;;;;8.90;8.00;;;;;;;20.21;71.38;96810.73;106924;1284;35137;-81
2022/07/04 04:59:24;;;;;;;9.80;8.10;;;;;;;20.29;71.28;96802.39;106849;1282;58513;-81
2022/07/04 05:01:56;;;;;;;9.20;8.20;;;;;;;20.42;70.90;96809.04;106888;1284;35295;-81
2022/07/04 05:04:27;;;;;;;9.70;8.70;;;;;;;20.54;70.53;96809.52;106726;1284;83276;-82
2022/07/04 05:06:58;;;;;;;9.00;8.10;;;;;;;20.68;70.29;96808.73;106539;1284;71140;-81
2022/07/04 05:09:29;;;;;;;8.80;7.90;;;;;;;20.83;69.83;96807.31;106415;1284;110081;-82
2022/07/04 05:12:00;;;;;;;8.90;7.90;;;;;;;20.94;69.48;96805.65;106500;1284;95666;-82
2022/07/04 05:14:31;;;;;;;8.30;7.30;;;;;;;21.14;69.27;96810.99;106647;1284;88598;-81
2022/07/04 05:17:03;;;;;;;8.50;7.60;;;;;;;21.39;68.92;96818.84;106688;1284;39884;-82
2022/07/04 05:19:35;;;;;;;8.80;7.90;;;;;;;21.67;68.21;96824.38;106739;1284;47969;-83
2022/07/04 05:22:06;;;;;;;8.50;7.60;;;;;;;22.00;67.44;96824.73;106717;1284;34060;-82
2022/07/04 05:24:39;;;;;;;8.60;7.60;;;;;;;23.14;66.44;96812.64;106712;1284;38987;-84
2022/07/04 05:27:10;;;;;;;8.20;7.30;;;;;;;25.45;63.41;96813.10;106832;1283;47841;-83
2022/07/04 05:29:41;;;;;;;7.90;6.70;;;;;;;27.65;59.95;96808.00;106699;1284;31378;-80
2022/07/04 05:32:12;;;;;;;6.80;6.20;;;;;;;29.36;55.39;96805.86;106928;1283;34362;-79
2022/07/04 05:34:44;;;;;;;7.50;6.80;;;;;;;30.61;51.96;96807.39;106930;1284;56743;-79
2022/07/04 05:37:15;;;;;;;7.00;6.30;;;;;;;31.76;49.14;96804.83;106771;1284;39032;-80
2022/07/04 05:39:49;;;;;;;7.00;6.40;;;;;;;32.61;45.24;96806.88;106865;1284;34403;-80
2022/07/04 05:42:20;;;;;;;6.70;6.10;;;;;;;32.92;43.33;96806.20;106837;1284;36026;-80
2022/07/04 05:44:52;;;;;;;6.50;5.90;;;;;;;33.21;42.42;96800.79;106826;1284;32442;-81
2022/07/04 05:47:24;;;;;;;7.10;6.30;;;;;;;33.51;41.22;96801.08;106807;1284;43340;-80
2022/07/04 05:49:56;;;;;;;6.90;6.00;;;;;;;34.00;40.83;96802.77;106925;1283;31182;-80
2022/07/04 05:52:28;;;;;;;6.40;5.80;;;;;;;34.74;40.06;96804.23;106792;1284;37446;-80
2022/07/04 05:54:59;;;;;;;6.80;6.20;;;;;;;35.47;38.93;96811.04;106792;1284;32580;-80
2022/07/04 05:57:30;;;;;;;6.70;6.00;;;;;;;36.05;38.12;96809.96;106697;1284;50874;-80
2022/07/04 06:00:02;;;;;;;6.90;6.20;;;;;;;36.77;37.32;96813.34;106626;1284;58140;-80
2022/07/04 06:02:33;;;;;;;6.40;5.80;;;;;;;37.13;35.87;96814.59;106731;1284;67151;-81
2022/07/04 06:05:04;;;;;;;6.30;5.70;;;;;;;37.11;34.57;96819.14;106724;1284;43925;-86
2022/07/04 06:07:35;;;;;;;6.10;5.50;;;;;;;37.44;34.50;96820.75;106714;1284;30877;-86
2022/07/04 06:10:08;;;;;;;5.70;5.30;;;;;;;38.02;33.14;96822.70;106605;1284;50110;-87
2022/07/04 06:12:39;;;;;;;6.50;5.10;;;;;;;38.57;32.56;96821.71;106910;1284;35582;-91
2022/07/04 06:15:15;;;;;;;5.20;4.80;;;;;;;39.08;31.95;96829.16;106753;1283;50136;-86
2022/07/04 06:17:46;;;;;;;5.50;5.00;;;;;;;39.58;31.65;96834.92;107011;1284;45099;-88
2022/07/04 06:20:17;;;;;;;5.60;4.90;;;;;;;40.37;31.41;96840.07;106747;1284;43149;-88
2022/07/04 06:22:52;;;;;;;6.40;5.10;;;;;;;41.33;30.04;96839.66;104772;1284;2606392;-89
2022/07/04 06:25:24;;;;;;;5.50;5.10;;;;;;;42.05;28.66;96832.96;104195;1283;1777772;-90
2022/07/04 06:27:56;;;;;;;5.70;4.90;;;;;;;42.24;27.39;96833.66;106441;1284;166613;-89
2022/07/04 06:30:29;;;;;;;5.20;4.80;;;;;;;41.30;26.23;96832.00;106355;1284;118949;-88
2022/07/04 06:33:00;;;;;;;5.00;4.60;;;;;;;41.02;28.28;96830.90;105235;1284;2040990;-89
2022/07/04 06:35:54;;;;;;;5.20;4.60;;;;;;;42.29;27.60;96832.83;102223;1284;3283326;-91
2022/07/04 06:38:27;;;;;;;6.20;4.90;;;;;;;42.65;25.68;96829.04;106781;1284;38247;-90
2022/07/04 06:41:03;;;;;;;5.50;4.80;;;;;;;42.43;26.04;96831.26;105526;1284;1823522;-84
2022/07/04 06:43:34;;;;;;;4.70;4.40;;;;;;;42.85;25.80;96829.06;105229;1284;1761102;-88
2022/07/04 06:46:06;;;;;;;4.80;4.40;;;;;;;43.25;24.95;96827.04;106808;1284;33729;-88
2022/07/04 06:48:37;;;;;;;5.20;4.70;;;;;;;43.51;25.02;96823.84;106793;1284;32512;-87
2022/07/04 06:51:09;;;;;;;4.70;4.40;;;;;;;43.30;24.28;96822.59;106974;1284;35860;-87
2022/07/04 06:53:41;;;;;;;4.90;4.50;;;;;;;43.02;24.16;96821.87;106565;1284;178016;-89
2022/07/04 06:56:12;;;;;;;5.20;4.80;;;;;;;43.02;24.30;96819.88;103978;1284;1759154;-88
2022/07/04 06:58:44;;;;;;;4.60;4.20;;;;;;;43.03;24.22;96819.44;105160;1284;1794999;-90
2022/07/04 07:01:17;;;;;;;5.10;4.70;;;;;;;43.27;24.03;96822.46;106684;1284;94825;-91
2022/07/04 07:03:49;;;;;;;4.90;4.50;;;;;;;43.75;24.05;96820.23;106457;1284;160636;-89
2022/07/04 07:06:23;;;;;;;4.80;4.40;;;;;;;44.09;22.61;96814.73;105256;1284;1347040;-81
2022/07/04 07:08:56;;;;;;;5.20;4.80;;;;;;;43.47;22.67;96812.82;106398;1284;101182;-85
2022/07/04 07:11:29;;;;;;;5.80;4.20;;;;;;;43.78;23.65;96812.49;102429;1284;2367574;-84
2022/07/04 07:14:01;;;;;;;4.90;4.50;;;;;;;44.68;23.15;96818.06;104902;1284;1841646;-83
2022/07/04 07:16:33;;;;;;;5.30;4.60;;;;;;;45.31;22.08;96819.85;101151;1284;2166895;-82
2022/07/04 07:19:05;;;;;;;5.00;4.50;;;;;;;45.19;21.74;96822.66;106174;1284;142932;-84
2022/07/04 07:21:37;;;;;;;7.40;4.80;;;;;;;45.06;21.32;96818.86;106491;1284;102686;-83
2022/07/04 07:24:08;;;;;;;4.20;3.90;;;;;;;45.21;21.40;96818.19;106411;1284;133160;-84
2022/07/04 07:26:40;;;;;;;4.40;4.10;;;;;;;45.41;21.25;96818.66;106454;1283;109954;-85
2022/07/04 07:29:11;;;;;;;4.70;4.40;;;;;;;45.97;20.96;96819.52;106333;1284;115077;-80
2022/07/04 07:31:43;;;;;;;4.80;4.30;;;;;;;46.53;20.32;96818.70;105715;1284;91509;-79
2022/07/04 07:34:16;;;;;;;4.70;4.30;;;;;;;46.83;20.35;96821.36;104950;1284;1269954;-79
2022/07/04 07:36:47;;;;;;;4.60;4.30;;;;;;;47.72;19.98;96813.93;106186;1283;147604;-79
2022/07/04 07:39:19;;;;;;;4.60;4.30;;;;;;;47.28;19.17;96814.02;106062;1284;79921;-79
2022/07/04 07:41:51;;;;;;;4.50;4.10;;;;;;;46.38;18.14;96808.09;106830;1284;36603;-78
2022/07/04 07:44:24;;;;;;;3.70;3.40;;;;;;;44.00;19.30;96803.88;106113;1283;134088;-78
2022/07/04 07:46:59;;;;;;;3.50;3.30;;;;;;;42.87;19.14;96809.84;106407;1284;178411;-76
2022/07/04 07:49:31;;;;;;;4.20;3.80;;;;;;;42.62;20.36;96806.88;106456;1284;81420;-77
2022/07/04 07:52:05;;;;;;;4.60;4.30;;;;;;;44.02;19.91;96804.01;105785;1283;405769;-78
2022/07/04 07:54:42;;;;;;;4.20;3.90;;;;;;;43.35;20.21;96803.76;106294;1284;94362;-81
2022/07/04 07:57:16;;;;;;;4.50;4.20;;;;;;;45.12;20.62;96812.44;105928;1284;342341;-80
2022/07/04 07:59:51;;;;;;;4.20;3.90;;;;;;;46.30;19.08;96805.33;104185;1284;1474716;-80
2022/07/04 08:04:34;;;;;;;3.70;3.50;;;;;;;45.14;18.78;96807.81;106091;1284;184437;-83
2022/07/04 08:05:17;;;;;;;4.00;3.60;;;;;;;44.50;18.76;96808.36;105713;1283;245034;-82
2022/07/04 08:07:49;;;;;;;4.00;3.70;;;;;;;44.28;18.22;96802.67;105783;1284;236245;-80
2022/07/04 08:10:21;;;;;;;4.10;3.80;;;;;;;43.58;19.00;96802.77;105556;1284;199004;-79
2022/07/04 08:12:55;;;;;;;3.70;3.40;;;;;;;42.36;19.62;96802.64;104214;1284;1299389;-79
2022/07/04 08:15:28;;;;;;;3.60;3.40;;;;;;;41.41;20.48;96803.55;105549;1282;245543;-81
2022/07/04 08:33:27;;;;;;;4.90;3.60;;;;;;;42.57;20.29;96802.00;108583;1283;22342;-82
2022/07/04 08:35:59;;;;;;;4.10;3.70;;;;;;;42.04;19.13;96795.18;106986;1284;57415;-80
2022/07/04 08:45:55;;;;;;;3.30;3.10;;;;;;;43.56;18.00;96796.55;106460;1282;22801;-80
2022/07/04 08:48:30;;;;;;;4.20;3.80;;;;;;;42.18;18.70;96801.61;104939;1284;2019513;-80
2022/07/04 08:51:10;;;;;;;3.40;3.20;;;;;;;42.86;19.84;96807.05;106189;1283;35442;-79
2022/07/04 08:53:50;;;;;;;3.80;3.50;;;;;;;42.46;18.54;96810.19;106222;1284;36995;-82
2022/07/04 08:59:12;;;;;;;3.80;3.50;;;;;;;38.94;20.43;96806.50;105524;1284;1587589;-82
2022/07/04 09:01:45;;;;;;;4.60;4.00;;;;;;;37.24;22.39;96798.86;106848;1284;97243;-81
2022/07/04 09:04:17;;;;;;;4.30;4.00;;;;;;;36.40;23.56;96803.03;106825;1283;50436;-81
2022/07/04 09:06:49;;;;;;;4.70;4.00;;;;;;;35.43;24.14;96807.64;105184;1283;1672769;-81
2022/07/04 09:09:23;;;;;;;6.20;4.50;;;;;;;33.90;25.53;96808.48;106169;1284;175523;-81
2022/07/04 09:11:55;;;;;;;4.60;4.20;;;;;;;33.43;27.14;96808.55;106089;1284;102935;-81
2022/07/04 09:14:27;;;;;;;5.40;4.70;;;;;;;33.53;27.30;96803.39;106158;1283;109561;-82
2022/07/04 09:17:03;;;;;;;5.00;4.60;;;;;;;32.96;27.59;96807.45;106070;1284;165940;-82
2022/07/04 09:19:35;;;;;;;5.60;5.10;;;;;;;32.84;28.41;96802.81;106577;1284;215259;-80
2022/07/04 09:22:11;;;;;;;5.40;4.90;;;;;;;32.62;28.69;96805.92;105988;1282;176516;-81
2022/07/04 09:24:49;;;;;;;4.50;2.80;;;;;;;32.43;28.33;96813.36;106190;1284;107642;-82
2022/07/04 09:27:35;;;;;;;3.50;2.90;;;;;;;32.40;27.27;96811.92;106214;1284;123562;-82
2022/07/04 09:30:09;;;;;;;3.80;3.30;;;;;;;32.67;26.95;96811.55;106402;1284;125608;-83
2022/07/04 09:32:44;;;;;;;3.60;3.30;;;;;;;32.46;26.65;96804.83;106550;1284;165901;-82
2022/07/04 09:35:17;;;;;;;4.50;3.40;;;;;;;32.03;27.55;96799.38;106343;1284;115843;-82
2022/07/04 09:37:53;;;;;;;3.80;3.50;;;;;;;31.78;27.58;96799.58;106218;1284;139561;-82
2022/07/04 09:40:29;;;;;;;4.40;4.00;;;;;;;31.84;28.32;96800.36;106499;1284;118365;-83
2022/07/04 09:43:11;;;;;;;5.40;4.80;;;;;;;31.98;29.65;96799.86;106193;1284;173179;-83
2022/07/04 09:45:57;;;;;;;6.90;4.30;;;;;;;31.72;29.72;96809.04;106306;1284;99165;-81
2022/07/04 09:48:51;;;;;;;4.00;3.70;;;;;;;31.71;29.47;96806.55;105632;1284;2239812;-81
2022/07/04 09:51:45;;;;;;;3.40;3.10;;;;;;;31.83;29.43;96807.13;106025;1284;160285;-81
2022/07/04 09:54:25;;;;;;;4.30;3.50;;;;;;;31.76;29.61;96801.63;106228;1284;121805;-80
2022/07/04 09:56:59;;;;;;;3.50;3.20;;;;;;;31.62;29.56;96798.28;104233;1284;1593392;-81
2022/07/04 09:59:32;;;;;;;11.00;3.30;;;;;;;31.69;30.18;96799.21;105097;1284;2062311;-80
2022/07/04 10:02:13;;;;;;;3.30;3.00;;;;;;;32.11;30.10;96797.08;103105;1284;2068159;-82
2022/07/04 10:04:50;;;;;;;4.30;2.80;;;;;;;32.48;28.53;96800.98;103885;1284;2525753;-81
2022/07/04 10:07:43;;;;;;;3.60;2.80;;;;;;;31.98;27.74;96792.95;106280;1283;181673;-81
2022/07/04 10:10:32;;;;;;;2.60;2.20;;;;;;;31.50;27.52;96793.98;105539;1284;207486;-81
2022/07/04 10:13:06;;;;;;;3.00;2.40;;;;;;;31.44;27.89;96796.33;103634;1284;1824358;-80
2022/07/04 10:15:41;;;;;;;2.80;2.50;;;;;;;31.43;28.10;96799.86;106322;1284;177476;-81
2022/07/04 10:18:13;;;;;;;3.70;2.70;;;;;;;31.34;28.48;96797.30;102547;1284;2839987;-81
2022/07/04 10:20:45;;;;;;;3.00;2.70;;;;;;;31.63;29.09;96791.85;104835;1283;1144317;-80
2022/07/04 10:23:20;;;;;;;3.20;2.90;;;;;;;31.88;28.77;96778.44;105541;1284;1267240;-80
2022/07/04 10:25:59;;;;;;;2.80;2.60;;;;;;;31.77;28.31;96789.95;106381;1284;170633;-80
2022/07/04 10:28:32;;;;;;;2.70;2.50;;;;;;;31.38;28.57;96786.52;104028;1284;1867139;-80
2022/07/04 10:31:04;;;;;;;2.50;2.30;;;;;;;31.06;29.11;96784.68;105506;1284;264540;-80
2022/07/04 10:33:38;;;;;;;3.00;2.70;;;;;;;31.17;30.17;96789.02;105691;1284;165914;-80
2022/07/04 10:36:17;;;;;;;3.00;2.70;;;;;;;31.32;29.61;96791.30;106052;1283;165497;-81
2022/07/04 10:38:53;;;;;;;2.60;2.40;;;;;;;31.33;29.83;96794.48;104779;1284;1738846;-81
2022/07/04 10:41:25;;;;;;;2.70;2.50;;;;;;;31.52;29.01;96790.80;103333;1284;4208331;-81
2022/07/04 10:44:13;;;;;;;2.50;2.30;;;;;;;31.72;28.93;96789.86;104329;1284;1922702;-78
2022/07/04 10:46:49;;;;;;;2.30;2.00;;;;;;;31.86;28.62;96786.86;105972;1284;94722;-78
2022/07/04 10:49:24;;;;;;;2.80;2.60;;;;;;;31.80;28.50;96775.74;105739;1284;170847;-77
2022/07/04 10:52:09;;;;;;;2.70;2.50;;;;;;;31.72;28.50;96774.73;105711;1284;87023;-77
2022/07/04 10:54:41;;;;;;;4.30;2.20;;;;;;;31.83;29.36;96768.56;105591;1284;108749;-77
2022/07/04 10:57:17;;;;;;;2.40;2.20;;;;;;;31.84;29.32;96767.00;105476;1284;167008;-77
2022/07/04 11:00:05;;;;;;;4.30;2.60;;;;;;;31.80;29.55;96769.95;108123;1284;36731;-77
2022/07/04 11:02:38;;;;;;;2.70;2.50;;;;;;;31.77;29.81;96766.70;108123;1283;44426;-77
2022/07/04 11:05:18;;;;;;;2.60;2.40;;;;;;;31.66;28.63;96765.80;106835;1284;1352812;-82
2022/07/04 11:08:06;;;;;;;;;;;;;;;31.53;28.99;96767.55;104837;1284;1324680;-81
2022/07/04 11:11:05;;;;;;;3.10;2.50;;;;;;;31.31;29.68;96758.91;106177;1284;195714;-83
2022/07/04 11:13:40;;;;;;;3.30;3.00;;;;;;;31.56;30.51;96754.50;105483;1284;220624;-82
2022/07/04 11:16:18;;;;;;;3.00;2.60;;;;;;;31.74;30.46;96750.90;103762;1284;1909943;-81
2022/07/04 11:19:06;;;;;;;3.10;2.80;;;;;;;31.68;30.18;96750.75;101849;1283;4760663;-82
2022/07/04 11:21:44;;;;;;;3.20;2.90;;;;;;;31.28;30.01;96762.62;96262;1284;3157849;-82
2022/07/04 11:24:19;;;;;;;;;;;;;;;31.04;30.03;96761.93;104521;1284;1819044;-80
2022/07/04 11:26:52;;;;;;;2.50;2.30;;;;;;;30.79;30.15;96761.27;105826;1284;202240;-80
2022/07/04 11:29:25;;;;;;;3.90;2.80;;;;;;;30.95;30.67;96763.52;106449;1284;62075;-80
2022/07/04 11:31:58;;;;;;;3.30;2.50;;;;;;;31.35;30.05;96763.24;106639;1284;56696;-80
2022/07/04 11:34:34;;;;;;;3.10;2.80;;;;;;;31.63;30.68;96756.22;106489;1284;70931;-79
2022/07/04 11:37:06;;;;;;;2.70;2.50;;;;;;;31.95;30.08;96753.13;106302;1284;76488;-79
2022/07/04 11:39:37;;;;;;;3.30;2.40;;;;;;;31.97;28.95;96749.09;106544;1284;59281;-79
2022/07/04 11:45:05;;;;;;;3.10;2.50;;;;;;;31.51;29.71;96743.06;98751;1284;2501732;-80
2022/07/04 11:47:38;;;;;;;2.10;1.90;;;;;;;31.66;30.00;96742.46;104725;1284;2096944;-80
2022/07/04 11:50:13;;;;;;;2.60;2.40;;;;;;;31.45;28.71;96732.17;104822;1284;2085574;-80
2022/07/04 11:52:51;;;;;;;2.50;2.30;;;;;;;30.85;29.10;96737.19;106042;1284;115999;-81
2022/07/04 11:55:26;;;;;;;3.00;2.00;;;;;;;30.49;28.70;96738.80;104869;1286;2031801;-80
2022/07/04 11:57:58;;;;;;;2.90;2.50;;;;;;;30.37;29.34;96734.29;102696;1284;2304333;-81
2022/07/04 12:00:34;;;;;;;3.00;2.40;;;;;;;30.52;30.25;96740.86;105954;1282;164244;-80
2022/07/04 12:03:09;;;;;;;2.90;2.60;;;;;;;30.79;30.29;96739.77;106020;1284;111760;-80
2022/07/04 12:05:43;;;;;;;4.80;2.90;;;;;;;30.66;29.38;96732.06;104538;1284;2070106;-78
2022/07/04 12:08:15;;;;;;;3.00;2.70;;;;;;;30.36;29.93;96741.25;103977;1284;2041592;-77
2022/07/04 12:10:46;;;;;;;2.20;2.00;;;;;;;30.40;30.48;96734.50;106313;1284;119971;-77
2022/07/04 12:13:19;;;;;;;2.40;2.20;;;;;;;30.55;29.45;96737.73;106352;1284;38791;-78
2022/07/04 12:15:56;;;;;;;2.90;2.20;;;;;;;30.50;30.31;96735.17;106598;1284;36085;-79
2022/07/04 12:18:32;;;;;;;3.40;2.50;;;;;;;30.74;30.37;96733.39;99733;1284;6595163;-79
2022/07/04 12:21:19;;;;;;;3.60;2.90;;;;;;;30.76;29.91;96725.48;101964;1284;5575131;-80
2022/07/04 12:23:59;;;;;;;3.20;2.90;;;;;;;30.70;30.19;96727.02;98766;1284;4215265;-79
2022/07/04 12:26:48;;;;;;;3.10;2.80;;;;;;;30.50;30.38;96726.82;103456;1284;2528454;-81